Airfield :
LOGIN :

Register | Disclaimer

   EN    FR    IT 

 










Legend :    VFR   Marginal VFR   IFR   Intensive IFR   Very Intensive IFR
Visi :
Ceiling :
>= 8 km
>= 3000ft
5 to 8 km
1000 to 3000 ft
1500m to 5 km
500 to 1000 ft
800 to 1500m
200 to 500 ft
< 800m
< 200 ft
Symbols :   Thunderstorms  Fog  Heavy snow  Heavy precipitations  Wind > 20 kt
SIGMETs :     Misc.  Thunderstorms  Icing  Turbulence  Mountain Waves  Volcanic Ashes







- Airport Elevation : 3 ft
- IATA code : DHR


EHKD - Den Helder De Kooy

CURRENT METAR :
  • 101225Z AUTO 32017G28KT 280V350 9999 FEW027 SCT036 BKN044 07/02 Q1020 REDZ BLU 31015G25KT 9999 SCT025 SCT040 TEMPO SCT018CB BKN025

EXPIRED METARs :
  • 101155Z AUTO 31017G28KT 280V340 9999 SCT033 SCT037 08/01 Q1020 BLU 31015G25KT 9999 SCT025 SCT040 TEMPO SCT018CB BKN025
  • 101125Z AUTO 31018KT 270V340 9999 FEW031 08/02 Q1020 BLU 31015G25KT 9999 SCT025 SCT040 TEMPO SCT018CB BKN025
  • 101055Z AUTO 30017G27KT 260V350 9999 FEW019 SCT029 BKN033 07/03 Q1020 BLU 31015G25KT 9999 SCT025 SCT040 TEMPO SCT018CB BKN025
  • 101027Z AUTO 32017KT 280V360 9999 FEW035 SCT040 08/01 Q1020 BLU 31015G25KT 9999 SCT025 SCT040 TEMPO SCT018CB BKN025
  • 100955Z AUTO 31014G28KT 280V360 9999 FEW045 07/01 Q1020 BLU 31015G25KT 9999 SCT025 SCT040 TEMPO 4000 SHRA FEW015 SCT018CB BKN025

TAF TAF EHKD
Valid from the 10 at 10:00 until the 10 at 22:00 UTC


100911Z 1010/1022 31018G28KT 9999 SCT020 SCT030
TEMPO 1010/1018 32022G32KT SCT018CB BKN025
No reported NOTAMs for that airfield.



MET'MAP, your aeronautical weather chart ! - Copyright ORBIFLY December 2007 - Disclaimer

ORBIFLY MET'MAP TEAM :

Programming & Development : Alexandra Zaïnal
Concept & Development : Baudouin d'Aumeries
Co-Development & Prog : Marc-Olivier Méhu
Technical & hardware support : Manuel Goepfert

Contact : metmap@orbifly.com




SOURCES & CREDITS :

   NOAA